Time;durP1;ratioP1;P1;durP2;ratioP2;P2;SDS_P1;SDS_P2;PMS_P1;PMS_P2;Temp;Humidity;BMP_temperature;BMP_pressure;BME280_temperature;BME280_humidity;BME280_pressure;Samples;Min_cycle;Max_cycle;Signal;HPM_P1;HPM_P2
2021/04/12 00:00:32;;;;;;;5.57;2.65;;;;;;;5.10;100.00;103012.56;5030890;28;20041;-67
2021/04/12 00:03:26;;;;;;;4.32;2.85;;;;;;;5.06;100.00;103012.03;5030895;28;20046;-68
2021/04/12 00:06:11;;;;;;;5.90;2.78;;;;;;;5.05;100.00;103004.91;5030734;28;20099;-68
2021/04/12 00:09:01;;;;;;;4.53;2.17;;;;;;;5.02;100.00;103005.19;5030959;28;20035;-67
2021/04/12 00:11:47;;;;;;;6.38;2.40;;;;;;;4.98;100.00;103000.25;5030814;28;20041;-68
2021/04/12 00:14:20;;;;;;;3.38;2.42;;;;;;;4.93;100.00;103016.97;5030619;28;20037;-68
2021/04/12 00:17:07;;;;;;;7.05;2.20;;;;;;;4.91;100.00;103018.97;5030828;28;20037;-68
2021/04/12 00:19:55;;;;;;;5.95;2.20;;;;;;;4.88;100.00;103018.44;5030765;28;20045;-67
2021/04/12 00:22:48;;;;;;;4.80;2.42;;;;;;;4.84;100.00;103016.00;5030652;28;20026;-67
2021/04/12 00:25:58;;;;;;;4.75;2.20;;;;;;;4.82;100.00;103014.44;5030555;28;20048;-67
2021/04/12 00:28:56;;;;;;;5.95;3.05;;;;;;;4.82;100.00;103014.44;5029372;28;20052;-67
2021/04/12 00:31:30;;;;;;;5.10;2.83;;;;;;;4.79;100.00;103021.00;5030304;28;20077;-66
2021/04/12 00:34:03;;;;;;;5.88;2.80;;;;;;;4.76;100.00;103015.06;5030561;28;20104;-68
2021/04/12 00:36:42;;;;;;;6.05;2.95;;;;;;;4.75;100.00;103018.78;5030520;28;20091;-68
2021/04/12 00:39:18;;;;;;;6.10;2.70;;;;;;;4.73;100.00;103020.78;5030755;28;20135;-68
2021/04/12 00:42:00;;;;;;;5.38;2.80;;;;;;;4.68;100.00;103017.66;5030660;28;20040;-67
2021/04/12 00:44:51;;;;;;;5.20;2.72;;;;;;;4.65;100.00;103018.81;5030325;28;20037;-67
2021/04/12 00:47:47;;;;;;;5.10;2.60;;;;;;;4.66;100.00;103025.06;5030400;28;20033;-69
2021/04/12 00:50:28;;;;;;;6.57;3.60;;;;;;;4.64;100.00;103025.22;5029247;28;20120;-69
2021/04/12 00:53:19;;;;;;;7.47;3.25;;;;;;;4.65;100.00;103024.22;5030430;28;20156;-67
2021/04/12 00:55:52;;;;;;;7.57;3.53;;;;;;;4.68;100.00;103023.91;5028709;28;20045;-67
2021/04/12 00:58:36;;;;;;;5.28;2.30;;;;;;;4.69;100.00;103024.78;5030468;28;20038;-67
2021/04/12 01:01:11;;;;;;;4.85;2.20;;;;;;;4.73;100.00;103037.88;5029049;28;20060;-68
2021/04/12 01:03:39;;;;;;;5.43;2.15;;;;;;;4.77;100.00;103046.53;5030081;28;20458;-66
2021/04/12 01:06:25;;;;;;;5.25;2.20;;;;;;;4.76;100.00;103042.13;5030290;28;20140;-68
2021/04/12 01:09:24;;;;;;;5.25;2.42;;;;;;;4.74;100.00;103038.72;5033015;28;20040;-67
2021/04/12 01:12:10;;;;;;;5.68;2.67;;;;;;;4.75;100.00;103040.44;5033949;28;20029;-67
2021/04/12 01:14:51;;;;;;;6.20;2.28;;;;;;;4.76;100.00;103042.97;5033860;28;20390;-66
2021/04/12 01:17:35;;;;;;;5.97;2.55;;;;;;;4.76;100.00;103036.72;5033832;28;20119;-67
2021/04/12 01:20:32;;;;;;;5.80;2.45;;;;;;;4.78;100.00;103035.56;5033685;28;20114;-67
2021/04/12 01:23:19;;;;;;;3.55;2.28;;;;;;;4.80;100.00;103030.00;5033749;28;20095;-69
2021/04/12 01:26:05;;;;;;;9.48;3.58;;;;;;;4.79;100.00;103031.84;5033417;28;20087;-67
2021/04/12 01:28:37;;;;;;;4.28;2.85;;;;;;;4.77;100.00;103028.44;5032398;28;20049;-66
2021/04/12 01:31:23;;;;;;;2.58;2.08;;;;;;;4.77;100.00;103027.59;5033794;28;20033;-67
2021/04/12 01:34:23;;;;;;;5.63;2.75;;;;;;;4.77;100.00;103022.19;5031929;28;20048;-67
2021/04/12 01:36:52;;;;;;;3.97;2.47;;;;;;;4.78;100.00;103018.47;5033519;28;20083;-69
2021/04/12 01:39:36;;;;;;;3.65;2.70;;;;;;;4.80;100.00;103016.44;5033380;28;20037;-68
2021/04/12 01:42:14;;;;;;;5.53;2.42;;;;;;;4.85;100.00;103014.13;5033415;28;20045;-66
2021/04/12 01:44:47;;;;;;;5.88;2.40;;;;;;;4.90;100.00;103006.44;5033242;28;20033;-67
2021/04/12 01:47:44;;;;;;;4.15;2.30;;;;;;;4.97;100.00;103003.97;5032230;28;20039;-67
2021/04/12 01:50:36;;;;;;;3.75;2.58;;;;;;;5.02;100.00;103010.63;5033490;28;20053;-66
2021/04/12 01:53:17;;;;;;;6.10;2.75;;;;;;;5.07;100.00;103004.75;5031857;28;20107;-67
2021/04/12 01:56:10;;;;;;;4.93;2.72;;;;;;;5.10;100.00;103008.00;5033024;28;20175;-67
2021/04/12 01:58:45;;;;;;;5.00;2.25;;;;;;;5.09;100.00;102992.75;5033106;28;20116;-66
2021/04/12 02:01:17;;;;;;;7.03;2.40;;;;;;;5.10;100.00;103005.31;5031941;28;20037;-68
2021/04/12 02:03:55;;;;;;;5.88;2.70;;;;;;;5.12;100.00;103000.56;5033045;28;20029;-67
2021/04/12 02:06:43;;;;;;;7.47;2.70;;;;;;;5.13;100.00;103005.00;5033165;28;20057;-68
2021/04/12 02:09:39;;;;;;;5.90;3.40;;;;;;;5.14;100.00;103008.53;5032983;28;20407;-67
2021/04/12 02:12:33;;;;;;;5.15;2.92;;;;;;;5.12;100.00;103005.16;5033078;28;20030;-69
2021/04/12 02:15:08;;;;;;;6.05;2.60;;;;;;;5.10;100.00;103002.59;5031620;28;20056;-66
2021/04/12 02:17:53;;;;;;;5.78;3.03;;;;;;;5.07;100.00;102997.47;5033035;28;20037;-67
2021/04/12 02:20:29;;;;;;;;;;;;;;;5.06;100.00;103012.03;5032539;28;20033;-67
2021/04/12 02:23:22;;;;;;;6.95;2.17;;;;;;;5.04;100.00;103005.94;5032721;28;19990;-68
2021/04/12 02:26:11;;;;;;;6.47;2.03;;;;;;;5.02;100.00;103004.34;5032623;28;20061;-67
2021/04/12 02:28:57;;;;;;;6.18;3.25;;;;;;;4.98;100.00;103003.81;5032659;28;20029;-67
2021/04/12 02:31:40;;;;;;;9.93;1.92;;;;;;;4.95;100.00;102993.28;5032405;28;20079;-67
2021/04/12 02:34:13;;;;;;;7.97;2.22;;;;;;;4.92;100.00;102993.59;5032310;28;20033;-67
2021/04/12 02:37:00;;;;;;;5.18;1.63;;;;;;;4.89;100.00;102988.47;5032765;28;20037;-67
2021/04/12 02:40:01;;;;;;;6.93;2.58;;;;;;;4.88;100.00;102997.63;5032134;28;20025;-67
2021/04/12 02:42:40;;;;;;;5.15;2.25;;;;;;;4.85;100.00;102987.06;5032229;28;20480;-67
2021/04/12 02:45:19;;;;;;;5.88;2.15;;;;;;;4.84;100.00;102996.19;5032075;28;20037;-68
2021/04/12 02:47:53;;;;;;;4.95;2.83;;;;;;;4.81;100.00;102996.50;5032152;28;20402;-69
2021/04/12 02:50:32;;;;;;;4.70;2.55;;;;;;;4.80;100.00;103001.06;5032010;28;20041;-70
2021/04/12 02:53:13;;;;;;;5.72;3.17;;;;;;;4.78;100.00;102991.38;5032084;28;20033;-69
2021/04/12 02:56:15;;;;;;;3.92;2.50;;;;;;;4.77;100.00;102998.66;5031707;28;20124;-67
2021/04/12 02:59:18;;;;;;;6.00;3.10;;;;;;;4.76;100.00;103004.22;5031844;28;20030;-68
2021/04/12 03:01:56;;;;;;;6.45;2.60;;;;;;;4.76;100.00;102998.81;5031792;28;20112;-67
2021/04/12 03:04:51;;;;;;;7.70;2.58;;;;;;;4.78;100.00;103007.63;5031511;28;20408;-67
2021/04/12 03:07:36;;;;;;;6.00;2.22;;;;;;;4.79;100.00;103003.94;5031852;28;20103;-67
2021/04/12 03:10:38;;;;;;;5.53;2.70;;;;;;;4.79;100.00;103006.63;5030274;28;20045;-67
2021/04/12 03:13:22;;;;;;;4.63;2.33;;;;;;;4.78;100.00;103007.63;5031439;28;20033;-67
2021/04/12 03:16:26;;;;;;;8.07;2.93;;;;;;;4.78;100.00;103013.91;5031731;28;20110;-68
2021/04/12 03:19:03;;;;;;;5.25;2.72;;;;;;;4.79;100.00;103014.75;5031448;28;20381;-67
2021/04/12 03:21:37;;;;;;;9.18;2.75;;;;;;;4.78;100.00;103002.22;5031404;28;20056;-69
2021/04/12 03:24:20;;;;;;;;;;;;;;;4.78;100.00;103004.94;5031974;28;20476;-67
2021/04/12 03:27:12;;;;;;;5.70;2.80;;;;;;;4.78;100.00;103007.63;5031563;28;20427;-67
2021/04/12 03:30:23;;;;;;;6.10;3.08;;;;;;;4.79;100.00;103014.75;5031386;28;20476;-68
2021/04/12 03:33:10;;;;;;;6.32;3.28;;;;;;;4.77;100.00;103005.94;5031008;28;20045;-67
2021/04/12 03:35:42;;;;;;;5.50;2.97;;;;;;;4.76;100.00;103010.50;5031139;28;20043;-67
2021/04/12 03:38:45;;;;;;;7.70;3.25;;;;;;;4.76;100.00;103015.91;5031161;28;20033;-67
2021/04/12 03:41:13;;;;;;;5.45;2.80;;;;;;;4.76;100.00;103006.94;5013708;28;20406;-68
2021/04/12 03:44:10;;;;;;;6.38;3.30;;;;;;;4.76;100.00;103010.50;5030907;28;20069;-67
2021/04/12 03:46:52;;;;;;;6.57;3.10;;;;;;;4.80;100.00;103011.88;5031119;28;20041;-67
2021/04/12 03:49:32;;;;;;;7.80;2.85;;;;;;;4.82;100.00;103014.44;5031111;28;20488;-67
2021/04/12 03:52:15;;;;;;;6.60;3.70;;;;;;;4.85;100.00;103014.13;5031219;28;20030;-67
2021/04/12 03:55:20;;;;;;;5.57;3.13;;;;;;;4.86;100.00;103021.28;5030942;28;20036;-67
2021/04/12 03:57:55;;;;;;;4.65;2.78;;;;;;;4.86;100.00;103021.28;5031039;28;20038;-67
2021/04/12 04:00:26;;;;;;;11.35;3.97;;;;;;;4.87;100.00;103016.72;5030929;28;20034;-67
2021/04/12 04:03:14;;;;;;;6.95;2.95;;;;;;;4.86;100.00;103026.72;5030865;28;20558;-67
2021/04/12 04:05:57;;;;;;;7.82;3.25;;;;;;;4.85;100.00;103022.25;5030982;28;20063;-67
2021/04/12 04:08:53;;;;;;;4.80;3.15;;;;;;;4.83;100.00;103029.69;5030805;28;20034;-67
2021/04/12 04:11:25;;;;;;;8.75;3.45;;;;;;;4.84;100.00;103023.25;5030801;28;20041;-67
2021/04/12 04:14:15;;;;;;;4.63;3.20;;;;;;;4.83;100.00;103025.13;5030792;28;20025;-66
2021/04/12 04:16:41;;;;;;;5.90;3.42;;;;;;;4.83;100.00;103032.41;5030831;28;20030;-68
2021/04/12 04:19:28;;;;;;;14.15;3.65;;;;;;;4.84;100.00;103040.38;5030834;28;20034;-67
2021/04/12 04:22:20;;;;;;;6.18;3.35;;;;;;;4.82;100.00;103042.38;5030674;28;20037;-67
2021/04/12 04:25:21;;;;;;;4.85;3.10;;;;;;;4.84;100.00;103043.06;5030485;28;20446;-68
2021/04/12 04:27:58;;;;;;;7.22;3.25;;;;;;;4.88;100.00;103038.22;5030635;28;20030;-66
2021/04/12 04:30:59;;;;;;;7.38;3.10;;;;;;;4.94;100.00;103048.44;5030690;28;20034;-68
2021/04/12 04:33:27;;;;;;;9.93;3.28;;;;;;;5.00;100.00;103045.13;5030551;28;20025;-67
2021/04/12 04:36:02;;;;;;;6.68;3.10;;;;;;;5.05;100.00;103033.84;5030836;28;20033;-68
2021/04/12 04:38:46;;;;;;;6.85;2.95;;;;;;;5.10;100.00;103045.94;5030430;28;20175;-69
2021/04/12 04:41:36;;;;;;;5.70;3.00;;;;;;;5.15;100.00;103049.03;5030630;28;20048;-67
2021/04/12 04:44:35;;;;;;;7.43;2.47;;;;;;;5.20;100.00;103035.00;5033587;28;20290;-67
2021/04/12 04:47:19;;;;;;;8.10;3.42;;;;;;;5.27;100.00;103024.44;5034577;28;20029;-68
2021/04/12 04:50:30;;;;;;;7.97;3.07;;;;;;;5.32;100.00;103043.78;5034285;28;20345;-67
2021/04/12 04:53:09;;;;;;;6.75;2.78;;;;;;;5.32;100.00;103051.91;5031823;28;20290;-67
2021/04/12 04:55:40;;;;;;;4.40;2.78;;;;;;;5.34;100.00;103047.19;5033849;28;20045;-67
2021/04/12 04:58:24;;;;;;;8.25;4.50;;;;;;;5.35;100.00;103027.22;5034308;28;20120;-67
2021/04/12 05:01:28;;;;;;;4.40;2.70;;;;;;;5.38;100.00;103016.06;5033951;28;20034;-67
2021/04/12 05:04:38;;;;;;;9.10;2.40;;;;;;;5.39;100.00;103025.91;5034085;28;20346;-67
2021/04/12 05:07:43;;;;;;;5.95;2.83;;;;;;;5.37;100.00;103025.19;5051520;28;20037;-66
2021/04/12 05:10:33;;;;;;;9.48;2.80;;;;;;;5.39;100.00;103028.63;5033978;28;20582;-68
2021/04/12 05:13:02;;;;;;;7.80;2.80;;;;;;;5.41;100.00;103026.63;5048275;28;20046;-67
2021/04/12 05:16:03;;;;;;;5.28;2.75;;;;;;;5.41;100.00;103034.75;5033791;28;20041;-67
2021/04/12 05:19:07;;;;;;;4.25;2.20;;;;;;;5.44;100.00;103034.44;5033860;28;20091;-67
2021/04/12 05:21:38;;;;;;;6.60;2.75;;;;;;;5.46;100.00;103029.69;5033772;28;20113;-67
2021/04/12 05:24:21;;;;;;;7.65;3.03;;;;;;;5.48;100.00;103033.09;5033532;28;20152;-67
2021/04/12 05:26:57;;;;;;;6.85;2.75;;;;;;;5.51;100.00;103031.94;5033701;28;20057;-67
2021/04/12 05:29:32;;;;;;;7.00;2.50;;;;;;;5.51;100.00;103031.94;5033494;28;20522;-68
2021/04/12 05:32:19;;;;;;;5.47;2.80;;;;;;;5.50;100.00;103031.09;5033554;28;20041;-66
2021/04/12 05:35:01;;;;;;;7.53;3.20;;;;;;;5.51;100.00;103038.22;5033361;28;20468;-66
2021/04/12 05:37:42;;;;;;;6.80;3.33;;;;;;;5.52;100.00;103037.22;5032372;28;20499;-67
2021/04/12 05:40:26;;;;;;;5.15;3.35;;;;;;;5.54;100.00;103037.91;5033429;28;20041;-67
2021/04/12 05:42:58;;;;;;;8.40;3.03;;;;;;;5.56;100.00;103045.91;5033326;28;20091;-67
2021/04/12 05:45:39;;;;;;;5.72;3.10;;;;;;;5.56;100.00;103035.91;5033044;28;20116;-67
2021/04/12 05:48:20;;;;;;;5.22;3.25;;;;;;;5.56;100.00;103041.34;5033317;28;20030;-67
2021/04/12 05:50:58;;;;;;;5.15;2.95;;;;;;;5.57;100.00;103040.31;5033202;28;20119;-67
2021/04/12 05:53:44;;;;;;;5.15;3.03;;;;;;;5.58;100.00;103039.31;5033048;28;20033;-67
2021/04/12 05:56:30;;;;;;;7.13;2.90;;;;;;;5.61;100.00;103049.00;5031277;28;20495;-67
2021/04/12 05:59:04;;;;;;;5.47;3.28;;;;;;;5.61;100.00;103041.72;5033015;28;20037;-67
2021/04/12 06:02:01;;;;;;;5.32;2.58;;;;;;;5.63;100.00;103047.81;5031667;28;20033;-67
2021/04/12 06:04:45;;;;;;;10.23;3.15;;;;;;;5.67;100.00;103049.22;5032877;28;20051;-67
2021/04/12 06:07:22;;;;;;;11.05;3.92;;;;;;;5.72;100.00;103049.59;5032918;28;20033;-67
2021/04/12 06:10:19;;;;;;;4.57;2.50;;;;;;;5.76;100.00;103047.44;5032859;28;20029;-69
2021/04/12 06:12:54;;;;;;;11.07;2.85;;;;;;;5.82;100.00;103062.22;5032755;28;20392;-67
2021/04/12 06:15:25;;;;;;;;;;;;;;;5.88;100.00;103050.72;5033227;28;20041;-67
2021/04/12 06:18:25;;;;;;;6.28;2.20;;;;;;;5.92;100.00;103052.19;5032875;28;19967;-66
2021/04/12 06:21:21;;;;;;;4.35;2.53;;;;;;;5.98;100.00;103048.81;5031232;28;20042;-69
2021/04/12 06:24:12;;;;;;;9.23;3.75;;;;;;;6.07;100.00;103056.00;5032614;28;20100;-66
2021/04/12 06:27:11;;;;;;;5.28;2.90;;;;;;;6.12;100.00;103058.25;5032683;28;20056;-68
2021/04/12 06:29:55;;;;;;;7.45;2.80;;;;;;;6.16;100.00;103060.50;5032482;28;20026;-67
2021/04/12 06:32:29;;;;;;;4.38;2.50;;;;;;;6.20;100.00;103061.88;5032481;28;20555;-67
2021/04/12 06:35:34;;;;;;;4.47;2.72;;;;;;;6.25;100.00;103064.97;5032283;28;20029;-67
2021/04/12 06:37:59;;;;;;;6.05;2.80;;;;;;;6.31;100.00;103067.03;5031530;28;20197;-67
2021/04/12 06:41:03;;;;;;;8.20;2.97;;;;;;;6.38;100.00;103069.09;5032223;28;20542;-67
2021/04/12 06:43:49;;;;;;;5.15;2.55;;;;;;;6.44;100.00;103079.34;5032162;28;20025;-68
2021/04/12 06:46:33;;;;;;;6.43;2.60;;;;;;;6.50;100.00;103075.97;5032273;28;20037;-67
2021/04/12 06:49:17;;;;;;;5.07;2.53;;;;;;;6.54;100.00;103086.34;5032052;28;20384;-67
2021/04/12 06:52:07;;;;;;;4.85;2.28;;;;;;;6.62;100.00;103078.28;5032177;28;20033;-66
2021/04/12 06:54:45;;;;;;;5.38;2.75;;;;;;;6.69;100.00;103083.91;5031861;28;20099;-67
2021/04/12 06:57:47;;;;;;;7.22;2.40;;;;;;;6.76;100.00;103079.50;5031846;28;20075;-69
2021/04/12 07:00:18;;;;;;;4.53;2.00;;;;;;;6.84;100.00;103082.28;5031994;28;20041;-68
2021/04/12 07:03:21;;;;;;;4.78;2.40;;;;;;;6.98;100.00;103079.97;5032054;28;20049;-67
2021/04/12 07:06:14;;;;;;;7.60;3.22;;;;;;;7.10;100.00;103092.22;5031258;28;20468;-68
2021/04/12 07:09:21;;;;;;;3.70;1.85;;;;;;;7.21;100.00;103089.22;5031622;28;20039;-67
2021/04/12 07:11:52;;;;;;;3.63;2.38;;;;;;;7.29;100.00;103085.66;5031101;28;20046;-67
2021/04/12 07:14:56;;;;;;;5.72;2.05;;;;;;;7.35;100.00;103091.31;5031479;28;20026;-68
2021/04/12 07:17:43;;;;;;;5.07;2.00;;;;;;;7.40;100.00;103093.50;5031567;28;20045;-67
2021/04/12 07:20:18;;;;;;;6.90;1.77;;;;;;;7.45;100.00;103092.00;5031575;28;20083;-66
2021/04/12 07:23:23;;;;;;;5.82;1.90;;;;;;;7.49;100.00;103087.94;5031776;28;20033;-67
2021/04/12 07:26:07;;;;;;;4.65;1.90;;;;;;;7.53;100.00;103089.31;5031328;28;20065;-67
2021/04/12 07:29:07;;;;;;;5.00;2.27;;;;;;;7.55;100.00;103091.84;5031410;28;20030;-67
2021/04/12 07:31:39;;;;;;;9.38;2.35;;;;;;;7.61;100.00;103095.75;5031358;28;20424;-68
2021/04/12 07:34:40;;;;;;;2.65;2.15;;;;;;;7.69;100.00;103093.06;5031224;28;20032;-66
2021/04/12 07:37:22;;;;;;;5.88;2.25;;;;;;;7.76;100.00;103083.22;5031240;28;20555;-69
2021/04/12 07:40:25;;;;;;;3.42;2.10;;;;;;;7.86;100.00;103086.63;5031116;28;20488;-68
2021/04/12 07:43:14;;;;;;;5.60;2.53;;;;;;;8.00;100.00;103085.97;5031108;28;20030;-67
2021/04/12 07:46:20;;;;;;;6.82;1.83;;;;;;;8.16;100.00;103080.50;5031553;28;20041;-67
2021/04/12 07:49:26;;;;;;;2.80;0.82;;;;;;;8.30;100.00;103075.38;5031131;28;20048;-67
2021/04/12 07:52:17;;;;;;;3.80;0.90;;;;;;;8.45;100.00;103079.13;5031078;28;20068;-68
2021/04/12 07:55:10;;;;;;;5.85;1.10;;;;;;;8.53;100.00;103081.84;5030678;28;20033;-68
2021/04/12 07:58:13;;;;;;;6.05;0.90;;;;;;;8.65;100.00;103074.97;5044454;28;20092;-68
2021/04/12 08:00:57;;;;;;;3.67;0.90;;;;;;;8.80;100.00;103079.72;5035611;28;20026;-65
2021/04/12 08:04:04;;;;;;;3.70;1.80;;;;;;;8.90;100.00;103083.09;5030718;28;20041;-68
2021/04/12 08:07:06;;;;;;;2.85;0.90;;;;;;;8.88;100.00;103074.25;5046261;28;20792;-67
2021/04/12 08:10:04;;;;;;;2.58;0.70;;;;;;;8.84;100.00;103083.78;5041835;28;20055;-69
2021/04/12 08:13:04;;;;;;;3.03;1.25;;;;;;;8.86;100.00;103081.75;5044424;28;20045;-76
2021/04/12 08:15:51;;;;;;;3.78;0.93;;;;;;;8.94;100.00;103084.44;5049552;28;20847;-67
2021/04/12 08:18:48;;;;;;;4.78;1.27;;;;;;;9.10;100.00;103088.97;5039844;28;20040;-68
2021/04/12 08:21:38;;;;;;;8.02;1.42;;;;;;;9.24;100.00;103086.34;5054333;28;20037;-68
2021/04/12 08:24:10;;;;;;;3.95;1.13;;;;;;;9.25;100.00;103093.50;5053322;28;20036;-67
2021/04/12 08:27:11;;;;;;;6.50;1.73;;;;;;;9.36;100.00;103093.06;5053796;28;20044;-67
2021/04/12 08:29:58;;;;;;;2.85;0.95;;;;;;;9.51;100.00;103093.16;5053333;28;20135;-67
2021/04/12 08:32:29;;;;;;;3.50;1.10;;;;;;;9.68;100.00;103094.75;5043828;28;20053;-67
2021/04/12 08:35:19;;;;;;;3.55;1.08;;;;;;;9.82;100.00;103095.84;5049567;28;20033;-66
2021/04/12 08:37:45;;;;;;;6.43;1.08;;;;;;;9.93;100.00;103095.44;5049177;28;20025;-69
2021/04/12 08:40:47;;;;;;;3.38;1.35;;;;;;;9.92;100.00;103096.47;5050064;28;20175;-65
2021/04/12 08:43:32;;;;;;;2.70;0.82;;;;;;;9.96;100.00;103103.25;5052406;28;20037;-68
2021/04/12 08:46:51;;;;;;;8.88;1.15;;;;;;;9.97;100.00;103115.88;5038105;28;20033;-66
2021/04/12 08:49:42;;;;;;;3.55;0.88;;;;;;;10.00;100.00;103113.81;5068815;28;20537;-66
2021/04/12 08:52:38;;;;;;;2.35;0.80;;;;;;;10.06;100.00;103119.38;5051805;28;20487;-68
2021/04/12 08:55:35;;;;;;;3.95;1.08;;;;;;;10.17;100.00;103115.38;5045870;28;20026;-65
2021/04/12 08:58:13;;;;;;;3.50;0.80;;;;;;;10.16;100.00;103116.41;5043242;28;20046;-64
2021/04/12 09:01:01;;;;;;;4.05;0.75;;;;;;;10.16;100.00;103113.66;5052184;28;20036;-69
2021/04/12 09:03:52;;;;;;;6.63;0.82;;;;;;;10.13;100.00;103124.97;5048819;28;20033;-66
2021/04/12 09:06:36;;;;;;;2.38;0.50;;;;;;;10.05;100.00;103127.75;5054046;28;20040;-66
2021/04/12 09:09:33;;;;;;;3.20;0.50;;;;;;;10.02;100.00;103128.13;5053778;28;20071;-67
2021/04/12 09:12:31;;;;;;;2.45;0.60;;;;;;;10.02;100.00;103136.31;5042689;28;20033;-67
2021/04/12 09:15:22;;;;;;;4.22;0.95;;;;;;;9.91;100.00;103152.09;5054258;28;20040;-71
2021/04/12 09:18:33;;;;;;;8.05;0.98;;;;;;;9.79;100.00;103142.63;5051309;28;20118;-68
2021/04/12 09:21:34;;;;;;;2.83;0.80;;;;;;;9.75;100.00;103149.47;5048340;28;20044;-68
2021/04/12 09:24:43;;;;;;;2.58;0.47;;;;;;;9.81;100.00;103154.19;5053701;28;20045;-68
2021/04/12 09:27:30;;;;;;;2.90;0.70;;;;;;;9.93;100.00;103152.78;5062083;28;20045;-66
2021/04/12 09:30:53;;;;;;;3.42;0.60;;;;;;;9.79;100.00;103160.88;5053374;28;20473;-67
2021/04/12 09:33:50;;;;;;;2.42;0.77;;;;;;;9.75;100.00;103159.53;5056294;28;20049;-67
2021/04/12 09:36:36;;;;;;;1.83;0.70;;;;;;;9.79;100.00;103167.19;5053870;28;20108;-68
2021/04/12 09:39:28;;;;;;;3.47;1.25;;;;;;;9.71;100.00;103169.94;5053670;28;20045;-66
2021/04/12 09:42:39;;;;;;;1.63;0.55;;;;;;;9.67;100.00;103168.63;5053533;28;20032;-66
2021/04/12 09:45:47;;;;;;;2.10;0.50;;;;;;;9.47;100.00;103167.38;5053983;28;20458;-66
2021/04/12 09:48:31;;;;;;;2.38;0.60;;;;;;;9.46;100.00;103173.84;5053505;28;20075;-67
2021/04/12 09:51:39;;;;;;;4.93;1.03;;;;;;;9.54;100.00;103179.25;5053792;28;20537;-68
2021/04/12 09:54:25;;;;;;;2.97;0.68;;;;;;;9.58;100.00;103175.16;5059618;28;20684;-67
2021/04/12 09:57:25;;;;;;;6.20;0.70;;;;;;;9.73;100.00;103177.97;5053209;28;20060;-66
2021/04/12 10:00:04;;;;;;;6.43;1.92;;;;;;;9.80;100.00;103174.34;5053244;28;20040;-67
2021/04/12 10:02:51;;;;;;;4.65;0.95;;;;;;;9.89;100.00;103170.53;5053232;28;20112;-68
2021/04/12 10:05:32;;;;;;;3.83;0.82;;;;;;;10.07;100.00;103161.22;5053000;28;20041;-69
2021/04/12 10:08:31;;;;;;;4.15;1.13;;;;;;;10.01;100.00;103172.84;5053039;28;20056;-67
2021/04/12 10:11:08;;;;;;;3.05;0.85;;;;;;;10.24;100.00;103165.53;5050876;28;20037;-68
2021/04/12 10:14:03;;;;;;;6.45;1.33;;;;;;;10.53;100.00;103171.06;5052922;28;20044;-65
2021/04/12 10:16:34;;;;;;;3.33;1.27;;;;;;;10.44;100.00;103166.72;5053066;28;20071;-66
2021/04/12 10:19:15;;;;;;;1.88;0.80;;;;;;;10.45;100.00;103173.91;5052953;28;20273;-68
2021/04/12 10:22:38;;;;;;;3.42;0.90;;;;;;;10.23;100.00;103175.59;5052933;28;20506;-68
2021/04/12 10:25:11;;;;;;;3.47;0.80;;;;;;;10.25;100.00;103172.72;5070201;28;20040;-66
2021/04/12 10:27:44;;;;;;;4.25;0.63;;;;;;;10.14;100.00;103175.81;5070609;28;20044;-68
2021/04/12 10:30:10;;;;;;;4.13;1.00;;;;;;;9.98;100.00;103177.63;5058097;28;20075;-68
2021/04/12 10:32:43;;;;;;;3.95;0.90;;;;;;;9.91;100.00;103182.13;5052662;28;20086;-68
2021/04/12 10:35:24;;;;;;;4.40;0.75;;;;;;;9.91;100.00;103179.41;5052629;28;20104;-66
2021/04/12 10:38:02;;;;;;;6.85;0.90;;;;;;;9.80;100.00;103182.53;5052480;28;20029;-66
2021/04/12 10:40:48;;;;;;;4.38;0.50;;;;;;;9.68;100.00;103186.69;5051659;28;20029;-68
2021/04/12 10:43:40;;;;;;;2.38;0.63;;;;;;;9.79;100.00;103189.03;5052559;28;20033;-67
2021/04/12 10:46:35;;;;;;;7.10;0.80;;;;;;;9.99;100.00;103189.41;5052437;28;20029;-68
2021/04/12 10:49:06;;;;;;;5.85;0.90;;;;;;;10.31;100.00;103188.34;5052073;28;20044;-67
2021/04/12 10:51:51;;;;;;;3.00;0.70;;;;;;;10.52;100.00;103174.84;5052531;28;20119;-67
2021/04/12 10:54:23;;;;;;;3.05;0.80;;;;;;;10.83;100.00;103169.25;5052068;28;20361;-67
2021/04/12 10:56:59;;;;;;;3.45;1.08;;;;;;;11.06;100.00;103160.94;5052371;28;20049;-66
2021/04/12 10:59:37;;;;;;;2.70;0.65;;;;;;;11.36;100.00;103158.22;5052173;28;20037;-66
2021/04/12 11:02:12;;;;;;;3.33;1.60;;;;;;;11.61;100.00;103162.31;5052133;28;20075;-68
2021/04/12 11:04:52;;;;;;;4.05;0.82;;;;;;;11.25;100.00;103169.63;5051907;28;20037;-68
2021/04/12 11:07:23;;;;;;;13.02;1.80;;;;;;;10.86;100.00;103162.56;5051105;28;20447;-68
2021/04/12 11:09:53;;;;;;;11.23;1.38;;;;;;;10.68;100.00;103173.00;5051974;28;20033;-67
2021/04/12 11:12:31;;;;;;;4.60;0.75;;;;;;;10.34;100.00;103168.84;5051810;28;20108;-68
2021/04/12 11:15:21;;;;;;;4.93;0.90;;;;;;;10.22;100.00;103171.16;5051566;28;20029;-68
2021/04/12 11:18:02;;;;;;;4.45;0.85;;;;;;;10.36;100.00;103180.44;5051791;28;20117;-68
2021/04/12 11:20:31;;;;;;;6.75;1.17;;;;;;;10.67;100.00;103174.03;5051213;28;20057;-67
2021/04/12 11:23:02;;;;;;;4.10;1.02;;;;;;;10.91;100.00;103172.91;5051200;28;20036;-68
2021/04/12 11:25:30;;;;;;;4.65;1.33;;;;;;;11.26;100.00;103174.06;5051211;28;20124;-65
2021/04/12 11:28:15;;;;;;;5.70;0.80;;;;;;;11.57;100.00;103171.09;5051142;28;20076;-65
2021/04/12 11:31:26;;;;;;;3.47;0.68;;;;;;;11.93;100.00;103168.38;5051354;28;20037;-66
2021/04/12 11:34:13;;;;;;;3.58;1.20;;;;;;;11.65;100.00;103171.84;5047897;28;20083;-68
2021/04/12 11:37:14;;;;;;;4.30;1.10;;;;;;;11.60;100.00;103168.81;5039923;28;20129;-69
2021/04/12 11:39:51;;;;;;;5.05;0.65;;;;;;;11.59;100.00;103171.75;5048216;28;20523;-67
2021/04/12 11:42:21;;;;;;;6.40;0.95;;;;;;;11.77;100.00;103175.75;5048794;28;20064;-70
2021/04/12 11:44:59;;;;;;;2.83;0.70;;;;;;;11.73;100.00;103177.19;5031884;28;20095;-66
2021/04/12 11:47:53;;;;;;;2.85;0.90;;;;;;;11.65;100.00;103165.53;5031409;28;20065;-70
2021/04/12 11:50:32;;;;;;;2.60;0.68;;;;;;;11.45;100.00;103182.56;5031255;28;20086;-65
2021/04/12 11:53:19;;;;;;;2.25;0.50;;;;;;;11.34;100.00;103188.50;5031146;28;20121;-67
2021/04/12 11:56:01;;;;;;;16.63;7.65;;;;;;;11.08;100.00;103183.50;5031001;28;20115;-70
2021/04/12 11:58:38;;;;;;;16.70;7.57;;;;;;;11.03;100.00;103183.22;5031176;28;20033;-70
2021/04/12 12:01:33;;;;;;;17.30;7.93;;;;;;;11.27;100.00;103186.69;5036432;28;20025;-69
2021/04/12 12:04:14;;;;;;;14.65;5.85;;;;;;;11.76;100.00;103181.44;5057374;28;20053;-67
2021/04/12 12:06:54;;;;;;;17.42;6.63;;;;;;;12.25;100.00;103177.97;5050399;28;20056;-67
2021/04/12 12:09:43;;;;;;;7.88;3.08;;;;;;;12.75;100.00;103170.59;5044640;28;20028;-69
2021/04/12 12:12:32;;;;;;;9.32;3.72;;;;;;;13.03;100.00;103173.34;5050988;28;20106;-69
2021/04/12 12:15:25;;;;;;;5.00;1.95;;;;;;;12.86;100.00;103176.41;5047009;28;20378;-69
2021/04/12 12:18:28;;;;;;;4.00;0.60;;;;;;;13.28;100.00;103177.31;5031027;28;20029;-66
2021/04/12 12:21:26;;;;;;;2.38;0.77;;;;;;;13.76;100.00;103178.16;5034058;28;20503;-66
2021/04/12 12:24:11;;;;;;;2.30;0.80;;;;;;;13.96;100.00;103172.69;5050020;28;20090;-67
2021/04/12 12:27:03;;;;;;;2.55;0.60;;;;;;;13.65;100.00;103180.63;5048345;28;20033;-70
2021/04/12 12:29:55;;;;;;;2.80;0.43;;;;;;;13.26;100.00;103180.25;5050768;28;20032;-68
2021/04/12 12:32:45;;;;;;;1.35;0.65;;;;;;;13.52;96.71;103182.25;5052028;28;20496;-70
2021/04/12 12:35:22;;;;;;;1.98;0.60;;;;;;;13.30;96.77;103177.09;5050740;28;20448;-66
2021/04/12 12:38:15;;;;;;;3.63;0.68;;;;;;;12.96;97.31;103176.03;5049739;28;20043;-66
2021/04/12 12:40:52;;;;;;;2.90;1.02;;;;;;;12.74;98.91;103178.00;5050356;28;20083;-68
2021/04/12 12:43:32;;;;;;;3.53;0.85;;;;;;;12.62;100.00;103174.09;5050513;28;20057;-68
2021/04/12 12:46:13;;;;;;;3.55;1.10;;;;;;;13.12;100.00;103172.13;5050559;28;20029;-70
2021/04/12 12:49:20;;;;;;;1.00;0.47;;;;;;;13.51;94.88;103157.75;5050721;28;20067;-67
2021/04/12 12:52:01;;;;;;;1.75;0.63;;;;;;;13.26;79.86;103166.53;5050071;28;20053;-70
2021/04/12 12:54:42;;;;;;;5.20;1.00;;;;;;;13.71;84.43;103164.19;5049108;28;20120;-67